Wallops Island, VA

5:46 AM EST on February 14, 2016 (GMT -0500)
KE5BM-13 | | Change Station
CLOSE
Current Station
Personal Weather Station
Location: Wallops Island, VA
Elevation: 43 ft
Nearby Weather Stations
Active Advisory: Wind Chill Advisory

Elev 43 ft 37.92 °N, 75.48 °W | Updated 2 seconds ago

Clear
Clear
12.6 °F
Feels Like -3 °F
N
14.0
Wind Variable Wind from WNW
Gusts 19.0 mph

Today
High -- | Low -- °F
--% Chance of Precip.
Yesterday
High -- | Low -- °F
Precip. -- in
Pressure 30.47 in
Visibility 10.0 miles
Clouds Clear
Windchill -3 °F
Dew Point -3 °F
Humidity 50%
Rainfall 0.00 in
Snow Depth Not available.
6:53 AM 5:39 PM
Waxing Crescent, 40% visible
METAR KWAL 140954Z AUTO 31009KT 10SM CLR M10/M19 A3048 RMK AO2 SLP317 T11001189
Pressure 30.47 in
Visibility 10.0 miles
Clouds Clear
Windchill -3 °F
Dew Point -3 °F
Humidity 50%
Rainfall 0.00 in
Snow Depth Not available.
6:53 AM 5:39 PM
Waxing Crescent, 40% visible
METAR KWAL 140954Z AUTO 31009KT 10SM CLR M10/M19 A3048 RMK AO2 SLP317 T11001189

10-Day Weather Forecast

Almanac

Astronomy

Feb. 14, 2016 Rise Set
Actual Time
Civil Twilight
Nautical Twilight
Astronomical Twilight
Moon
Length of Visible Light
Length of Day
Tomorrow will be .
, % of the Moon is Illuminated

Today's Extremes

State Highs State Lows

Community

WunderPhotos

Upload Photos

1,892,765 photos uploaded!

WunderBlog® & News

Nearby

Air Quality

  Air Quality AQ Index Pollutant
Not available.

Snow Depth

Station Depth Elevation

Earthquake Activity

City Distance Mag. Time & Date
Minimum magnitude displayed is 2.5.

Coastal Water Temperatures

Place Temperature

Stations

Nearby Weather Stations

Station Location Temp. Windchill Dew Point Humidity Wind Precip. Elev Updated Type
                   

Watches & Warnings

Wind Chill Advisory
Issued: 3:54 AM EST Feb. 14, 2016 – National Weather Service

... Wind Chill Advisory remains in effect until 10 am EST this
morning...

* areas affected: Virginia Northern Neck... and the lower
Maryland and Virginia Eastern Shore.

* Hazards: dangerously low wind chills. Northwest winds 15 to 20
mph with gusts to 30 mph.

* Wind chill values: mainly zero to five below zero.

* Timing: late tonight through early Sunday morning.

* Impacts: wind chill values potentially reaching dangerous
levels. The low wind chills have the potential to result in
hypothermia if care is not taken to stay warm and sheltered.

Precautionary/preparedness actions...

A Wind Chill Advisory means that very cold air and strong winds
will combine to generate low wind chills. This will result in
frost bite and lead to hypothermia if precautions are not taken.
If you must venture outdoors... make sure you wear a hat and
gloves.